createdAt,value
2023-04-12T00:03:04.738Z,24.92
2023-04-12T00:06:11.485Z,25.42
2023-04-12T00:09:17.024Z,25.85
2023-04-12T00:12:20.740Z,24.98
2023-04-12T00:15:23.978Z,25.92
2023-04-12T00:18:27.415Z,25.88
2023-04-12T00:21:30.696Z,26.20
2023-04-12T00:24:35.248Z,25.55
2023-04-12T00:27:39.094Z,27.02
2023-04-12T00:30:42.374Z,25.38
2023-04-12T00:33:46.049Z,28.45
2023-04-12T00:36:49.695Z,28.00
2023-04-12T00:39:54.346Z,28.40
2023-04-12T00:42:57.787Z,28.55
2023-04-12T00:46:03.393Z,31.05
2023-04-12T00:49:07.248Z,29.50
2023-04-12T00:52:12.204Z,29.33
2023-04-12T00:55:17.132Z,31.75
2023-04-12T00:58:22.922Z,30.85
2023-04-12T01:01:28.020Z,30.33
2023-04-12T01:04:31.325Z,31.13
2023-04-12T01:07:51.610Z,30.73
2023-04-12T01:14:08.182Z,33.45
2023-04-12T01:17:17.274Z,34.78
2023-04-12T01:20:24.631Z,34.00
2023-04-12T01:23:49.024Z,32.50
2023-04-12T01:26:57.759Z,33.28
2023-04-12T01:30:04.196Z,32.97
2023-04-12T01:33:09.242Z,32.30
2023-04-12T01:36:17.705Z,32.38
2023-04-12T01:39:21.821Z,31.75
2023-04-12T01:42:25.964Z,32.05
2023-04-12T01:45:31.101Z,29.75
2023-04-12T01:48:34.471Z,32.17
2023-04-12T01:51:46.850Z,31.10
2023-04-12T01:54:54.740Z,32.08
2023-04-12T01:57:58.874Z,31.80
2023-04-12T02:01:05.701Z,34.72
2023-04-12T02:04:10.708Z,35.58
2023-04-12T02:07:15.298Z,35.10
2023-04-12T02:10:28.538Z,33.90
2023-04-12T02:13:31.760Z,35.30
2023-04-12T02:16:36.413Z,35.88
2023-04-12T02:19:41.017Z,35.45
2023-04-12T02:22:44.316Z,35.05
2023-04-12T02:25:47.765Z,37.47
2023-04-12T02:28:53.484Z,37.67
2023-04-12T02:31:58.587Z,38.50
2023-04-12T02:35:03.660Z,38.97
2023-04-12T02:38:08.163Z,40.40
2023-04-12T02:41:18.694Z,41.30
2023-04-12T02:44:21.910Z,39.47
2023-04-12T02:47:45.568Z,39.60
2023-04-12T02:50:49.590Z,41.40
2023-04-12T02:53:56.831Z,41.13
2023-04-12T02:57:03.797Z,41.10
2023-04-12T03:00:19.486Z,41.55
2023-04-12T03:03:26.752Z,40.72
2023-04-12T03:06:34.786Z,42.30
2023-04-12T03:09:42.571Z,44.25
2023-04-12T03:12:46.065Z,43.22
2023-04-12T03:15:57.177Z,44.90
2023-04-12T03:19:08.760Z,44.35
2023-04-12T03:22:12.355Z,42.00
2023-04-12T03:25:20.035Z,43.80
2023-04-12T03:31:34.871Z,42.10
2023-04-12T03:34:43.409Z,45.58
2023-04-12T03:37:49.692Z,45.17
2023-04-12T03:40:53.148Z,46.45
2023-04-12T03:44:03.722Z,44.33
2023-04-12T03:47:09.634Z,44.42
2023-04-12T03:50:14.498Z,44.25
2023-04-12T03:53:23.840Z,44.95
2023-04-12T03:56:27.269Z,44.38
2023-04-12T03:59:32.875Z,43.40
2023-04-12T04:02:37.412Z,43.65
2023-04-12T04:05:46.106Z,43.58
2023-04-12T04:08:50.396Z,43.55
2023-04-12T04:11:53.968Z,42.08
2023-04-12T04:15:01.097Z,42.70
2023-04-12T04:18:07.352Z,43.90
2023-04-12T04:21:12.207Z,42.08
2023-04-12T04:24:18.827Z,42.72
2023-04-12T04:27:25.205Z,41.38
2023-04-12T04:30:34.463Z,42.85
2023-04-12T04:33:40.136Z,39.97
2023-04-12T04:36:49.170Z,40.40
2023-04-12T04:39:59.480Z,39.05
2023-04-12T04:43:03.048Z,38.92
2023-04-12T04:46:12.001Z,39.72
2023-04-12T04:49:15.621Z,38.42
2023-04-12T04:52:20.451Z,36.83
2023-04-12T04:55:30.043Z,38.70
2023-04-12T04:58:34.487Z,37.42
2023-04-12T05:01:38.298Z,38.97
2023-04-12T05:04:42.143Z,40.03
2023-04-12T05:07:49.782Z,43.63
2023-04-12T05:10:53.633Z,43.92
2023-04-12T05:13:59.015Z,42.85
2023-04-12T05:17:02.559Z,43.95
2023-04-12T05:20:07.748Z,47.83
2023-04-12T05:23:12.856Z,49.83
2023-04-12T05:26:16.111Z,51.38
2023-04-12T05:29:23.997Z,49.55
2023-04-12T05:32:28.039Z,47.47
2023-04-12T05:35:32.504Z,46.95
2023-04-12T05:38:37.889Z,45.72
2023-04-12T05:41:47.195Z,43.60
2023-04-12T05:44:50.895Z,45.15
2023-04-12T05:47:57.334Z,43.85
2023-04-12T05:51:01.188Z,46.38
2023-04-12T05:54:09.159Z,46.17
2023-04-12T05:57:13.978Z,45.70
2023-04-12T06:00:18.722Z,47.38
2023-04-12T06:03:23.870Z,46.15
2023-04-12T06:06:30.175Z,47.15
2023-04-12T06:09:35.551Z,49.35
2023-04-12T06:12:39.181Z,47.72
2023-04-12T06:15:42.634Z,47.35
2023-04-12T06:18:46.336Z,46.95
2023-04-12T06:21:49.589Z,49.75
2023-04-12T06:24:54.434Z,54.97
2023-04-12T06:28:00.089Z,55.92
2023-04-12T06:31:04.146Z,53.53
2023-04-12T06:34:11.932Z,53.00
2023-04-12T06:37:16.076Z,51.20
2023-04-12T06:40:20.916Z,49.72
2023-04-12T06:43:24.289Z,49.47
2023-04-12T06:46:28.521Z,49.83
2023-04-12T06:49:32.078Z,48.67
2023-04-12T06:52:35.432Z,46.15
2023-04-12T06:55:40.175Z,46.30
2023-04-12T06:58:43.535Z,45.85
2023-04-12T07:01:46.889Z,45.38
2023-04-12T07:04:54.035Z,47.33
2023-04-12T07:07:57.193Z,46.53
2023-04-12T07:11:14.475Z,47.90
2023-04-12T07:14:23.300Z,49.63
2023-04-12T07:17:27.532Z,47.70
2023-04-12T07:20:30.835Z,46.28
2023-04-12T07:23:34.278Z,46.38
2023-04-12T07:26:38.969Z,48.05
2023-04-12T07:29:42.278Z,46.22
2023-04-12T07:32:46.329Z,41.35
2023-04-12T07:35:49.709Z,41.70
2023-04-12T07:38:55.663Z,43.13
2023-04-12T07:42:50.315Z,40.65
2023-04-12T07:45:56.029Z,39.78
2023-04-12T07:48:59.479Z,42.83
2023-04-12T07:52:02.920Z,44.30
2023-04-12T07:55:06.614Z,44.50
2023-04-12T07:58:09.804Z,46.53
2023-04-12T08:01:16.941Z,43.53
2023-04-12T08:04:20.634Z,44.20
2023-04-12T08:07:24.127Z,43.40
2023-04-12T08:10:27.506Z,42.83
2023-04-12T08:13:30.713Z,41.58
2023-04-12T08:16:35.315Z,43.47
2023-04-12T08:19:38.647Z,42.35
2023-04-12T08:22:41.946Z,43.25
2023-04-12T08:25:45.190Z,40.60
2023-04-12T08:28:48.638Z,42.42
2023-04-12T08:31:53.853Z,44.58
2023-04-12T08:34:57.217Z,41.38
2023-04-12T08:38:06.894Z,43.47
2023-04-12T08:41:10.206Z,44.40
2023-04-12T08:44:13.618Z,45.03
2023-04-12T08:47:18.413Z,42.70
2023-04-12T08:50:22.881Z,43.55
2023-04-12T08:53:26.388Z,43.88
2023-04-12T08:56:31.125Z,42.30
2023-04-12T08:59:37.972Z,41.50
2023-04-12T09:02:46.304Z,40.97
2023-04-12T09:05:49.702Z,40.38
2023-04-12T09:08:55.149Z,41.92
2023-04-12T09:12:10.202Z,42.95
2023-04-12T09:15:17.773Z,43.65
2023-04-12T09:18:23.224Z,41.85
2023-04-12T09:21:27.284Z,43.10
2023-04-12T09:24:31.497Z,41.95
2023-04-12T09:27:48.249Z,40.42
2023-04-12T09:30:53.154Z,43.53
2023-04-12T09:34:09.192Z,41.33
2023-04-12T09:37:16.749Z,42.35
2023-04-12T09:40:26.995Z,41.17
2023-04-12T09:43:39.423Z,40.55
2023-04-12T09:46:53.061Z,44.58
2023-04-12T09:49:58.021Z,45.03
2023-04-12T09:53:02.296Z,44.72
2023-04-12T09:56:08.377Z,44.80
2023-04-12T09:59:14.301Z,43.08
2023-04-12T10:02:19.423Z,43.03
2023-04-12T10:05:26.985Z,41.00
2023-04-12T10:08:31.656Z,42.35
2023-04-12T10:11:35.814Z,43.50
2023-04-12T10:14:40.054Z,42.75
2023-04-12T10:17:45.363Z,43.33
2023-04-12T10:20:50.204Z,39.30
2023-04-12T10:23:56.313Z,36.03
2023-04-12T10:27:02.875Z,40.10
2023-04-12T10:30:23.434Z,37.47
2023-04-12T10:33:28.592Z,36.83
2023-04-12T10:36:56.051Z,38.60
2023-04-12T10:39:59.367Z,35.85
2023-04-12T10:43:28.082Z,41.33
2023-04-12T10:46:53.432Z,37.10
2023-04-12T10:50:22.006Z,34.65
2023-04-12T10:53:26.737Z,33.33
2023-04-12T10:56:40.590Z,36.55
2023-04-12T10:59:54.337Z,36.03
2023-04-12T11:03:12.715Z,37.88
2023-04-12T11:06:26.891Z,34.63
2023-04-12T11:09:51.852Z,34.78
2023-04-12T11:13:08.911Z,30.17
2023-04-12T11:16:14.025Z,33.42
2023-04-12T11:19:18.711Z,32.60
2023-04-12T11:22:23.816Z,29.40
2023-04-12T11:25:30.143Z,28.58
2023-04-12T11:28:35.370Z,29.45
2023-04-12T11:31:39.963Z,29.60
2023-04-12T11:34:46.506Z,29.58
2023-04-12T11:37:50.008Z,28.85
2023-04-12T11:40:54.698Z,30.35
2023-04-12T11:43:57.954Z,30.48
2023-04-12T11:47:02.330Z,29.98
2023-04-12T11:50:06.579Z,27.60
2023-04-12T11:53:13.377Z,28.63
2023-04-12T11:56:18.186Z,27.55
2023-04-12T11:59:21.518Z,26.15
2023-04-12T12:02:27.088Z,27.02
2023-04-12T12:05:36.733Z,26.38
2023-04-12T12:08:41.024Z,27.75
2023-04-12T12:11:45.798Z,28.02
2023-04-12T12:14:49.120Z,27.92
2023-04-12T12:17:52.906Z,27.35
2023-04-12T12:20:56.552Z,25.15
2023-04-12T12:24:00.088Z,24.27
2023-04-12T12:27:05.368Z,23.88
2023-04-12T12:30:12.252Z,23.95
2023-04-12T12:33:21.877Z,27.35
2023-04-12T12:36:33.930Z,26.67
2023-04-12T12:39:37.478Z,26.42
2023-04-12T12:42:50.145Z,28.65
2023-04-12T12:45:53.422Z,29.25
2023-04-12T12:48:57.314Z,31.75
2023-04-12T12:52:01.173Z,31.25
2023-04-12T12:55:04.793Z,31.98
2023-04-12T12:58:09.400Z,31.63
2023-04-12T13:01:12.785Z,31.65
2023-04-12T13:04:16.219Z,31.60
2023-04-12T13:07:19.661Z,31.25
2023-04-12T13:10:23.523Z,33.78
2023-04-12T13:13:28.450Z,33.28
2023-04-12T13:16:31.737Z,32.10
2023-04-12T13:19:35.007Z,31.13
2023-04-12T13:22:38.298Z,30.98
2023-04-12T13:25:41.614Z,32.22
2023-04-12T13:28:46.634Z,30.33
2023-04-12T13:31:50.270Z,31.85
2023-04-12T13:34:54.058Z,30.20
2023-04-12T13:37:57.553Z,30.15
2023-04-12T13:41:00.850Z,30.73
2023-04-12T13:44:05.780Z,30.58
2023-04-12T13:47:09.187Z,31.17
2023-04-12T13:50:12.652Z,30.52
2023-04-12T13:53:15.880Z,29.60
2023-04-12T13:56:19.716Z,31.23
2023-04-12T13:59:24.686Z,30.23
2023-04-12T14:02:29.365Z,30.05
2023-04-12T14:05:34.547Z,30.20
2023-04-12T14:08:37.871Z,30.83
2023-04-12T14:11:48.217Z,30.25
2023-04-12T14:17:56.974Z,30.02
2023-04-12T14:21:00.383Z,29.23
2023-04-12T14:24:04.083Z,29.50
2023-04-12T14:27:08.602Z,30.30
2023-04-12T14:30:13.896Z,31.83
2023-04-12T14:33:17.677Z,29.15
2023-04-12T14:36:21.144Z,32.38
2023-04-12T14:39:26.088Z,32.92
2023-04-12T14:42:29.293Z,35.50
2023-04-12T14:45:34.195Z,36.67
2023-04-12T14:48:37.478Z,38.22
2023-04-12T14:51:40.699Z,34.60
2023-04-12T14:54:44.012Z,33.15
2023-04-12T14:57:47.184Z,31.40
2023-04-12T15:00:51.850Z,30.70
2023-04-12T15:03:55.563Z,30.65
2023-04-12T15:06:58.948Z,28.90
2023-04-12T15:10:04.903Z,28.23
2023-04-12T15:13:08.358Z,28.05
2023-04-12T15:16:15.024Z,29.02
2023-04-12T15:19:22.311Z,29.20
2023-04-12T15:22:26.498Z,28.02
2023-04-12T15:25:30.961Z,30.67
2023-04-12T15:28:34.774Z,29.50
2023-04-12T15:31:39.652Z,27.65
2023-04-12T15:34:43.560Z,28.08
2023-04-12T15:37:48.028Z,30.40
2023-04-12T15:40:56.341Z,25.65
2023-04-12T15:43:59.896Z,26.00
2023-04-12T15:47:11.069Z,24.77
2023-04-12T15:50:15.349Z,24.88
2023-04-12T15:53:20.307Z,25.08
2023-04-12T15:56:25.533Z,24.65
2023-04-12T15:59:29.972Z,25.17
2023-04-12T16:02:35.041Z,24.42
2023-04-12T16:05:38.486Z,23.45
2023-04-12T16:08:41.958Z,24.77
2023-04-12T16:11:46.616Z,25.02
2023-04-12T16:14:51.341Z,25.10
2023-04-12T16:17:56.788Z,24.85
2023-04-12T16:21:00.185Z,24.23
2023-04-12T16:24:03.654Z,25.88
2023-04-12T16:27:07.141Z,28.83
2023-04-12T16:30:12.032Z,30.38
2023-04-12T16:33:17.390Z,28.63
2023-04-12T16:36:23.509Z,26.95
2023-04-12T16:39:29.149Z,25.88
2023-04-12T16:42:32.634Z,25.15
2023-04-12T16:45:36.317Z,25.25
2023-04-12T16:48:42.156Z,25.38
2023-04-12T16:51:45.522Z,25.50
2023-04-12T16:54:48.776Z,26.63
2023-04-12T16:57:53.727Z,25.77
2023-04-12T17:00:57.878Z,26.83
2023-04-12T17:04:03.686Z,26.95
2023-04-12T17:07:08.049Z,25.98
2023-04-12T17:10:12.124Z,26.52
2023-04-12T17:13:19.422Z,28.00
2023-04-12T17:16:24.962Z,28.75
2023-04-12T17:19:29.791Z,29.15
2023-04-12T17:22:33.357Z,30.38
2023-04-12T17:25:37.824Z,30.65
2023-04-12T17:28:45.134Z,29.63
2023-04-12T17:31:54.323Z,29.58
2023-04-12T17:35:00.156Z,30.08
2023-04-12T17:38:03.542Z,32.17
2023-04-12T17:41:10.041Z,34.83
2023-04-12T17:44:13.476Z,35.78
2023-04-12T17:47:17.339Z,42.10
2023-04-12T17:50:22.757Z,47.05
2023-04-12T17:53:26.078Z,95.07
2023-04-12T17:56:29.943Z,77.28
2023-04-12T17:59:33.950Z,51.90
2023-04-12T18:02:38.190Z,52.00
2023-04-12T18:05:46.104Z,48.35
2023-04-12T18:08:51.285Z,46.05
2023-04-12T18:11:57.155Z,49.00
2023-04-12T18:15:03.926Z,54.38
2023-04-12T18:18:08.100Z,49.63
2023-04-12T18:21:14.665Z,54.45
2023-04-12T18:24:18.034Z,49.60
2023-04-12T18:27:22.160Z,50.80
2023-04-12T18:30:25.897Z,57.15
2023-04-12T18:33:30.288Z,79.28
2023-04-12T18:36:36.889Z,58.70
2023-04-12T18:39:42.912Z,53.20
2023-04-12T18:42:46.624Z,83.95
2023-04-12T18:45:50.764Z,76.55
2023-04-12T18:48:54.835Z,74.22
2023-04-12T18:52:00.433Z,68.63
2023-04-12T18:55:03.925Z,77.82
2023-04-12T18:58:08.148Z,50.42
2023-04-12T19:01:12.345Z,48.67
2023-04-12T19:04:16.909Z,54.53
2023-04-12T19:07:22.259Z,71.63
2023-04-12T19:10:30.501Z,48.15
2023-04-12T19:13:34.281Z,47.55
2023-04-12T19:16:38.502Z,44.97
2023-04-12T19:19:42.391Z,47.03
2023-04-12T19:22:48.632Z,47.50
2023-04-12T19:25:53.009Z,46.00
2023-04-12T19:28:58.868Z,43.85
2023-04-12T19:32:07.299Z,43.05
2023-04-12T19:35:15.156Z,42.10
2023-04-12T19:38:21.316Z,41.63
2023-04-12T19:41:24.798Z,41.30
2023-04-12T19:44:29.328Z,41.10
2023-04-12T19:47:34.579Z,38.20
2023-04-12T19:50:39.805Z,38.60
2023-04-12T19:53:46.295Z,41.33
2023-04-12T19:56:50.165Z,41.17
2023-04-12T19:59:53.670Z,41.55
2023-04-12T20:02:57.297Z,39.22
2023-04-12T20:06:04.254Z,41.90
2023-04-12T20:09:09.099Z,40.78
2023-04-12T20:12:12.356Z,43.28
2023-04-12T20:15:15.789Z,44.75
2023-04-12T20:18:19.176Z,46.95
2023-04-12T20:21:23.329Z,44.60
2023-04-12T20:24:30.021Z,44.63
2023-04-12T20:27:33.664Z,45.63
2023-04-12T20:30:37.544Z,45.08
2023-04-12T20:33:42.201Z,45.20
2023-04-12T20:36:45.477Z,45.05
2023-04-12T20:39:51.497Z,45.45
2023-04-12T20:42:55.826Z,47.88
2023-04-12T20:46:00.890Z,49.65
2023-04-12T20:49:06.598Z,51.90
2023-04-12T20:52:10.053Z,51.65
2023-04-12T20:55:15.177Z,51.50
2023-04-12T20:58:19.312Z,51.53
2023-04-12T21:01:23.945Z,53.53
2023-04-12T21:04:28.451Z,52.85
2023-04-12T21:07:32.233Z,51.28
2023-04-12T21:10:36.825Z,51.35
2023-04-12T21:13:40.732Z,49.35
2023-04-12T21:16:44.554Z,50.55
2023-04-12T21:19:50.083Z,48.97
2023-04-12T21:22:53.757Z,47.90
2023-04-12T21:25:58.514Z,47.90
2023-04-12T21:29:02.450Z,48.47
2023-04-12T21:32:06.749Z,46.45
2023-04-12T21:35:11.145Z,42.75
2023-04-12T21:38:14.485Z,45.35
2023-04-12T21:41:19.118Z,44.40
2023-04-12T21:44:22.325Z,42.63
2023-04-12T21:47:25.645Z,43.15
2023-04-12T21:50:28.803Z,43.95
2023-04-12T21:53:32.030Z,42.63
2023-04-12T21:56:36.594Z,41.85
2023-04-12T21:59:41.698Z,40.67
2023-04-12T22:02:44.985Z,42.28
2023-04-12T22:06:00.844Z,42.22
2023-04-12T22:09:07.098Z,41.60
2023-04-12T22:12:12.409Z,41.58
2023-04-12T22:15:16.412Z,42.03
2023-04-12T22:18:20.525Z,42.90
2023-04-12T22:21:23.861Z,42.53
2023-04-12T22:24:27.070Z,42.10
2023-04-12T22:27:31.741Z,42.45
2023-04-12T22:30:36.349Z,43.65
2023-04-12T22:33:40.011Z,43.08
2023-04-12T22:36:43.189Z,41.83
2023-04-12T22:39:51.370Z,43.22
2023-04-12T22:42:56.092Z,44.30
2023-04-12T22:46:02.107Z,41.35
2023-04-12T22:49:05.780Z,40.33
2023-04-12T22:52:09.091Z,42.40
2023-04-12T22:55:14.301Z,41.55
2023-04-12T22:58:19.617Z,41.53
2023-04-12T23:01:22.842Z,42.03
2023-04-12T23:04:26.048Z,40.97
2023-04-12T23:07:29.920Z,40.88
2023-04-12T23:10:33.712Z,41.72
2023-04-12T23:13:38.338Z,43.30
2023-04-12T23:16:44.052Z,42.22
2023-04-12T23:19:47.318Z,40.67
2023-04-12T23:22:57.482Z,40.15
2023-04-12T23:26:01.498Z,42.92
2023-04-12T23:29:06.401Z,41.35
2023-04-12T23:32:17.520Z,42.67
2023-04-12T23:35:20.754Z,42.40
2023-04-12T23:38:32.151Z,43.03
2023-04-12T23:41:36.135Z,44.03
2023-04-12T23:44:41.121Z,44.45
2023-04-12T23:47:44.396Z,41.28
2023-04-12T23:50:48.229Z,38.75
2023-04-12T23:53:51.670Z,41.17
2023-04-12T23:56:54.868Z,39.97
2023-04-12T23:59:59.469Z,40.65
